sensor_id;sensor_type;location;lat;lon;timestamp;pressure;altitude;pressure_sealevel;temperature;humidity
64889;BME280;51386;53.082;8.816;2023-02-14T00:01:10;103623.56;;;10.87;62.01
64889;BME280;51386;53.082;8.816;2023-02-14T00:03:39;103624.59;;;10.85;61.44
64889;BME280;51386;53.082;8.816;2023-02-14T00:06:08;103619.53;;;10.82;61.51
64889;BME280;51386;53.082;8.816;2023-02-14T00:08:35;103618.91;;;10.78;61.63
64889;BME280;51386;53.082;8.816;2023-02-14T00:11:03;103624.41;;;10.75;61.79
64889;BME280;51386;53.082;8.816;2023-02-14T00:13:31;103635.13;;;10.72;62.32
64889;BME280;51386;53.082;8.816;2023-02-14T00:15:57;103628.19;;;10.71;61.76
64889;BME280;51386;53.082;8.816;2023-02-14T00:18:25;103630.09;;;10.69;61.84
64889;BME280;51386;53.082;8.816;2023-02-14T00:21:14;103629.31;;;10.67;61.92
64889;BME280;51386;53.082;8.816;2023-02-14T00:23:41;103623.31;;;10.65;62.70
64889;BME280;51386;53.082;8.816;2023-02-14T00:26:13;103619.03;;;10.64;62.12
64889;BME280;51386;53.082;8.816;2023-02-14T00:28:40;103622.59;;;10.63;61.84
64889;BME280;51386;53.082;8.816;2023-02-14T00:31:08;103613.75;;;10.64;62.09
64889;BME280;51386;53.082;8.816;2023-02-14T00:33:35;103615.66;;;10.62;62.38
64889;BME280;51386;53.082;8.816;2023-02-14T00:36:05;103615.66;;;10.62;62.29
64889;BME280;51386;53.082;8.816;2023-02-14T00:38:34;103616.38;;;10.64;61.96
64889;BME280;51386;53.082;8.816;2023-02-14T00:41:01;103613.84;;;10.63;61.84
64889;BME280;51386;53.082;8.816;2023-02-14T00:43:28;103616.38;;;10.64;62.25
64889;BME280;51386;53.082;8.816;2023-02-14T00:45:56;103614.50;;;10.66;61.86
64889;BME280;51386;53.082;8.816;2023-02-14T00:48:23;103615.09;;;10.70;61.47
64889;BME280;51386;53.082;8.816;2023-02-14T00:50:50;103610.59;;;10.72;61.81
64889;BME280;51386;53.082;8.816;2023-02-14T00:53:17;103615.56;;;10.76;61.96
64889;BME280;51386;53.082;8.816;2023-02-14T00:55:45;103611.94;;;10.77;61.44
64889;BME280;51386;53.082;8.816;2023-02-14T00:58:15;103614.50;;;10.79;61.82
64889;BME280;51386;53.082;8.816;2023-02-14T01:00:41;103614.59;;;10.77;60.97
64889;BME280;51386;53.082;8.816;2023-02-14T01:03:09;103616.28;;;10.78;61.47
64889;BME280;51386;53.082;8.816;2023-02-14T01:05:36;103622.28;;;10.80;61.36
64889;BME280;51386;53.082;8.816;2023-02-14T01:08:03;103609.00;;;10.82;61.42
64889;BME280;51386;53.082;8.816;2023-02-14T01:10:30;103612.50;;;10.82;61.12
64889;BME280;51386;53.082;8.816;2023-02-14T01:12:58;103606.28;;;10.83;60.90
64889;BME280;51386;53.082;8.816;2023-02-14T01:15:25;103612.59;;;10.81;60.79
64889;BME280;51386;53.082;8.816;2023-02-14T01:17:52;103607.34;;;10.81;60.75
64889;BME280;51386;53.082;8.816;2023-02-14T01:20:19;103603.72;;;10.82;60.65
64889;BME280;51386;53.082;8.816;2023-02-14T01:22:46;103604.59;;;10.82;60.92
64889;BME280;51386;53.082;8.816;2023-02-14T01:25:13;103604.59;;;10.82;60.99
64889;BME280;51386;53.082;8.816;2023-02-14T01:27:40;103601.09;;;10.82;60.93
64889;BME280;51386;53.082;8.816;2023-02-14T01:30:11;103592.38;;;10.81;60.50
64889;BME280;51386;53.082;8.816;2023-02-14T01:32:38;103603.84;;;10.80;60.65
64889;BME280;51386;53.082;8.816;2023-02-14T01:35:05;103603.13;;;10.78;60.72
64889;BME280;51386;53.082;8.816;2023-02-14T01:37:32;103595.63;;;10.72;60.59
64889;BME280;51386;53.082;8.816;2023-02-14T01:40:00;103601.84;;;10.71;60.52
64889;BME280;51386;53.082;8.816;2023-02-14T01:42:28;103602.78;;;10.70;61.03
64889;BME280;51386;53.082;8.816;2023-02-14T01:45:00;103592.25;;;10.70;61.01
64889;BME280;51386;53.082;8.816;2023-02-14T01:47:33;103594.81;;;10.72;60.79
64889;BME280;51386;53.082;8.816;2023-02-14T01:50:08;103591.31;;;10.71;60.50
64889;BME280;51386;53.082;8.816;2023-02-14T01:52:41;103593.22;;;10.69;60.17
64889;BME280;51386;53.082;8.816;2023-02-14T01:55:16;103596.91;;;10.67;60.55
64889;BME280;51386;53.082;8.816;2023-02-14T01:57:49;103594.34;;;10.65;60.68
64889;BME280;51386;53.082;8.816;2023-02-14T02:00:19;103586.44;;;10.65;60.95
64889;BME280;51386;53.082;8.816;2023-02-14T02:03:08;103582.22;;;10.63;60.45
64889;BME280;51386;53.082;8.816;2023-02-14T02:05:38;103581.41;;;10.62;60.49
64889;BME280;51386;53.082;8.816;2023-02-14T02:08:07;103584.97;;;10.61;60.30
64889;BME280;51386;53.082;8.816;2023-02-14T02:10:34;103580.88;;;10.57;60.76
64889;BME280;51386;53.082;8.816;2023-02-14T02:13:05;103581.06;;;10.54;60.14
64889;BME280;51386;53.082;8.816;2023-02-14T02:15:41;103578.88;;;10.48;60.89
64889;BME280;51386;53.082;8.816;2023-02-14T02:18:23;103581.91;;;10.42;60.99
64889;BME280;51386;53.082;8.816;2023-02-14T02:21:30;103574.81;;;10.30;60.80
64889;BME280;51386;53.082;8.816;2023-02-14T02:24:30;103580.50;;;10.24;61.57
64889;BME280;51386;53.082;8.816;2023-02-14T02:27:24;103580.91;;;10.18;61.51
64889;BME280;51386;53.082;8.816;2023-02-14T02:30:28;103574.31;;;10.11;61.11
64889;BME280;51386;53.082;8.816;2023-02-14T02:33:44;103565.16;;;10.04;61.53
64889;BME280;51386;53.082;8.816;2023-02-14T02:36:46;103571.75;;;9.97;61.64
64889;BME280;51386;53.082;8.816;2023-02-14T02:39:30;103565.97;;;9.92;61.50
64889;BME280;51386;53.082;8.816;2023-02-14T02:42:07;103575.00;;;9.88;61.57
64889;BME280;51386;53.082;8.816;2023-02-14T02:44:49;103566.69;;;9.81;61.79
64889;BME280;51386;53.082;8.816;2023-02-14T02:47:27;103565.16;;;9.77;62.20
64889;BME280;51386;53.082;8.816;2023-02-14T02:50:06;103564.34;;;9.77;61.97
64889;BME280;51386;53.082;8.816;2023-02-14T02:53:06;103570.44;;;9.77;62.34
64889;BME280;51386;53.082;8.816;2023-02-14T02:55:43;103570.44;;;9.77;62.03
64889;BME280;51386;53.082;8.816;2023-02-14T02:58:34;103568.09;;;9.73;61.77
64889;BME280;51386;53.082;8.816;2023-02-14T03:01:08;103560.94;;;9.75;61.97
64889;BME280;51386;53.082;8.816;2023-02-14T03:03:39;103558.31;;;9.75;62.07
64889;BME280;51386;53.082;8.816;2023-02-14T03:06:29;103560.13;;;9.74;61.98
64889;BME280;51386;53.082;8.816;2023-02-14T03:09:09;103546.97;;;9.74;61.79
64889;BME280;51386;53.082;8.816;2023-02-14T03:11:44;103549.38;;;9.77;61.55
64889;BME280;51386;53.082;8.816;2023-02-14T03:14:21;103540.44;;;9.80;61.99
64889;BME280;51386;53.082;8.816;2023-02-14T03:17:02;103538.78;;;9.79;61.83
64889;BME280;51386;53.082;8.816;2023-02-14T03:19:48;103545.94;;;9.77;61.24
64889;BME280;51386;53.082;8.816;2023-02-14T03:22:48;103546.88;;;9.76;62.10
64889;BME280;51386;53.082;8.816;2023-02-14T03:25:33;103544.97;;;9.78;61.58
64889;BME280;51386;53.082;8.816;2023-02-14T03:28:14;103541.19;;;9.82;61.77
64889;BME280;51386;53.082;8.816;2023-02-14T03:30:51;103531.75;;;9.79;61.85
64889;BME280;51386;53.082;8.816;2023-02-14T03:33:30;103532.56;;;9.80;61.49
64889;BME280;51386;53.082;8.816;2023-02-14T03:36:05;103532.78;;;9.77;61.79
64889;BME280;51386;53.082;8.816;2023-02-14T03:38:40;103532.97;;;9.74;61.53
64889;BME280;51386;53.082;8.816;2023-02-14T03:41:17;103520.75;;;9.73;61.42
64889;BME280;51386;53.082;8.816;2023-02-14T03:43:51;103525.09;;;9.74;61.30
64889;BME280;51386;53.082;8.816;2023-02-14T03:46:24;103528.44;;;9.76;62.02
64889;BME280;51386;53.082;8.816;2023-02-14T03:48:55;103525.63;;;9.79;62.06
64889;BME280;51386;53.082;8.816;2023-02-14T03:51:26;103525.41;;;9.82;61.40
64889;BME280;51386;53.082;8.816;2023-02-14T03:54:02;103517.44;;;9.83;61.63
64889;BME280;51386;53.082;8.816;2023-02-14T03:56:37;103520.91;;;9.84;61.84
64889;BME280;51386;53.082;8.816;2023-02-14T03:59:13;103520.91;;;9.84;61.76
64889;BME280;51386;53.082;8.816;2023-02-14T04:01:47;103514.69;;;9.85;61.12
64889;BME280;51386;53.082;8.816;2023-02-14T04:04:20;103522.59;;;9.85;62.01
64889;BME280;51386;53.082;8.816;2023-02-14T04:06:48;103517.31;;;9.85;61.99
64889;BME280;51386;53.082;8.816;2023-02-14T04:09:15;103513.84;;;9.84;61.14
64889;BME280;51386;53.082;8.816;2023-02-14T04:11:44;103506.91;;;9.83;61.18
64889;BME280;51386;53.082;8.816;2023-02-14T04:14:12;103501.00;;;9.80;61.67
64889;BME280;51386;53.082;8.816;2023-02-14T04:16:39;103503.75;;;9.78;61.58
64889;BME280;51386;53.082;8.816;2023-02-14T04:19:25;103501.41;;;9.74;61.06
64889;BME280;51386;53.082;8.816;2023-02-14T04:21:52;103503.31;;;9.72;61.24
64889;BME280;51386;53.082;8.816;2023-02-14T04:24:19;103509.41;;;9.72;61.39
64889;BME280;51386;53.082;8.816;2023-02-14T04:26:47;103507.91;;;9.68;61.01
64889;BME280;51386;53.082;8.816;2023-02-14T04:29:38;103503.69;;;9.66;61.55
64889;BME280;51386;53.082;8.816;2023-02-14T04:32:07;103503.06;;;9.62;61.23
64889;BME280;51386;53.082;8.816;2023-02-14T04:34:35;103498.84;;;9.60;61.29
64889;BME280;51386;53.082;8.816;2023-02-14T04:37:03;103506.81;;;9.58;61.80
64889;BME280;51386;53.082;8.816;2023-02-14T04:39:31;103492.00;;;9.57;61.83
64889;BME280;51386;53.082;8.816;2023-02-14T04:41:59;103492.94;;;9.56;61.38
64889;BME280;51386;53.082;8.816;2023-02-14T04:44:26;103494.09;;;9.52;61.22
64889;BME280;51386;53.082;8.816;2023-02-14T04:46:53;103496.72;;;9.52;61.41
64889;BME280;51386;53.082;8.816;2023-02-14T04:49:20;103502.81;;;9.52;61.90
64889;BME280;51386;53.082;8.816;2023-02-14T04:51:47;103489.75;;;9.51;61.44
64889;BME280;51386;53.082;8.816;2023-02-14T04:54:14;103487.13;;;9.51;61.72
64889;BME280;51386;53.082;8.816;2023-02-14T04:56:41;103482.72;;;9.51;62.06
64889;BME280;51386;53.082;8.816;2023-02-14T04:59:10;103480.09;;;9.51;61.78
64889;BME280;51386;53.082;8.816;2023-02-14T05:01:37;103473.97;;;9.51;61.56
64889;BME280;51386;53.082;8.816;2023-02-14T05:04:04;103478.44;;;9.50;61.81
64889;BME280;51386;53.082;8.816;2023-02-14T05:06:31;103470.53;;;9.50;61.49
64889;BME280;51386;53.082;8.816;2023-02-14T05:08:59;103465.06;;;9.53;61.75
64889;BME280;51386;53.082;8.816;2023-02-14T05:11:27;103469.38;;;9.54;62.18
64889;BME280;51386;53.082;8.816;2023-02-14T05:13:54;103472.75;;;9.57;62.08
64889;BME280;51386;53.082;8.816;2023-02-14T05:16:23;103472.63;;;9.58;62.08
64889;BME280;51386;53.082;8.816;2023-02-14T05:18:50;103469.81;;;9.61;61.83
64889;BME280;51386;53.082;8.816;2023-02-14T05:21:17;103475.06;;;9.61;61.76
64889;BME280;51386;53.082;8.816;2023-02-14T05:23:44;103470.66;;;9.62;61.85
64889;BME280;51386;53.082;8.816;2023-02-14T05:26:11;103466.34;;;9.61;61.68
64889;BME280;51386;53.082;8.816;2023-02-14T05:28:38;103465.53;;;9.60;61.36
64889;BME280;51386;53.082;8.816;2023-02-14T05:31:07;103463.72;;;9.61;61.48
64889;BME280;51386;53.082;8.816;2023-02-14T05:33:35;103455.09;;;9.59;61.62
64889;BME280;51386;53.082;8.816;2023-02-14T05:36:03;103459.41;;;9.60;61.98
64889;BME280;51386;53.082;8.816;2023-02-14T05:38:30;103462.03;;;9.60;61.49
64889;BME280;51386;53.082;8.816;2023-02-14T05:40:59;103449.81;;;9.59;61.93
64889;BME280;51386;53.082;8.816;2023-02-14T05:43:27;103453.41;;;9.58;61.57
64889;BME280;51386;53.082;8.816;2023-02-14T05:45:54;103456.03;;;9.58;61.54
64889;BME280;51386;53.082;8.816;2023-02-14T05:48:21;103457.91;;;9.55;60.93
64889;BME280;51386;53.082;8.816;2023-02-14T05:50:50;103458.97;;;9.53;61.13
64889;BME280;51386;53.082;8.816;2023-02-14T05:53:17;103458.22;;;9.51;61.42
64889;BME280;51386;53.082;8.816;2023-02-14T05:55:44;103461.13;;;9.46;61.09
64889;BME280;51386;53.082;8.816;2023-02-14T05:58:10;103457.78;;;9.44;61.25
64889;BME280;51386;53.082;8.816;2023-02-14T06:00:38;103462.19;;;9.44;61.54
64889;BME280;51386;53.082;8.816;2023-02-14T06:03:07;103461.44;;;9.42;61.88
64889;BME280;51386;53.082;8.816;2023-02-14T06:05:34;103465.84;;;9.41;61.92
64889;BME280;51386;53.082;8.816;2023-02-14T06:08:03;103472.06;;;9.40;61.56
64889;BME280;51386;53.082;8.816;2023-02-14T06:10:30;103465.34;;;9.36;61.64
64889;BME280;51386;53.082;8.816;2023-02-14T06:12:59;103469.06;;;9.32;61.39
64889;BME280;51386;53.082;8.816;2023-02-14T06:15:27;103467.50;;;9.30;61.81
64889;BME280;51386;53.082;8.816;2023-02-14T06:17:56;103474.56;;;9.29;61.81
64889;BME280;51386;53.082;8.816;2023-02-14T06:20:24;103470.22;;;9.28;61.57
64889;BME280;51386;53.082;8.816;2023-02-14T06:22:51;103476.41;;;9.27;62.08
64889;BME280;51386;53.082;8.816;2023-02-14T06:25:20;103483.56;;;9.25;61.75
64889;BME280;51386;53.082;8.816;2023-02-14T06:27:47;103482.81;;;9.23;61.84
64889;BME280;51386;53.082;8.816;2023-02-14T06:30:16;103474.19;;;9.21;62.10
64889;BME280;51386;53.082;8.816;2023-02-14T06:32:44;103488.25;;;9.20;62.06
64889;BME280;51386;53.082;8.816;2023-02-14T06:35:11;103481.41;;;9.18;61.90
64889;BME280;51386;53.082;8.816;2023-02-14T06:37:39;103482.44;;;9.15;62.12
64889;BME280;51386;53.082;8.816;2023-02-14T06:40:09;103480.78;;;9.14;62.16
64889;BME280;51386;53.082;8.816;2023-02-14T06:42:38;103480.03;;;9.12;62.45
64889;BME280;51386;53.082;8.816;2023-02-14T06:45:07;103475.72;;;9.11;62.00
64889;BME280;51386;53.082;8.816;2023-02-14T06:47:34;103480.97;;;9.11;62.09
64889;BME280;51386;53.082;8.816;2023-02-14T06:50:01;103480.34;;;9.08;62.21
64889;BME280;51386;53.082;8.816;2023-02-14T06:52:30;103477.78;;;9.06;62.67
64889;BME280;51386;53.082;8.816;2023-02-14T06:54:57;103476.94;;;9.06;62.42
64889;BME280;51386;53.082;8.816;2023-02-14T06:57:24;103478.19;;;9.00;62.55
64889;BME280;51386;53.082;8.816;2023-02-14T06:59:53;103475.56;;;9.00;62.58
64889;BME280;51386;53.082;8.816;2023-02-14T07:02:20;103474.59;;;9.01;62.83
64889;BME280;51386;53.082;8.816;2023-02-14T07:04:50;103472.94;;;9.00;62.91
64889;BME280;51386;53.082;8.816;2023-02-14T07:07:18;103469.56;;;8.98;62.79
64889;BME280;51386;53.082;8.816;2023-02-14T07:09:45;103471.63;;;8.93;62.44
64889;BME280;51386;53.082;8.816;2023-02-14T07:12:12;103469.06;;;8.92;62.65
64889;BME280;51386;53.082;8.816;2023-02-14T07:14:40;103472.66;;;8.91;63.17
64889;BME280;51386;53.082;8.816;2023-02-14T07:17:09;103468.44;;;8.88;63.02
64889;BME280;51386;53.082;8.816;2023-02-14T07:19:37;103475.75;;;8.83;63.08
64889;BME280;51386;53.082;8.816;2023-02-14T07:22:04;103468.81;;;8.82;62.91
64889;BME280;51386;53.082;8.816;2023-02-14T07:24:32;103472.41;;;8.81;62.84
64889;BME280;51386;53.082;8.816;2023-02-14T07:26:59;103467.16;;;8.81;63.16
64889;BME280;51386;53.082;8.816;2023-02-14T07:29:26;103475.94;;;8.80;63.21
64889;BME280;51386;53.082;8.816;2023-02-14T07:31:53;103472.22;;;8.84;63.35
64889;BME280;51386;53.082;8.816;2023-02-14T07:34:22;103470.78;;;8.93;63.05
64889;BME280;51386;53.082;8.816;2023-02-14T07:36:49;103465.38;;;9.08;63.70
64889;BME280;51386;53.082;8.816;2023-02-14T07:39:16;103468.81;;;9.23;62.92
64889;BME280;51386;53.082;8.816;2023-02-14T07:41:43;103471.63;;;9.34;62.11
64889;BME280;51386;53.082;8.816;2023-02-14T07:44:10;103469.25;;;9.43;61.93
64889;BME280;51386;53.082;8.816;2023-02-14T07:46:37;103465.91;;;9.54;61.74
64889;BME280;51386;53.082;8.816;2023-02-14T07:49:06;103471.50;;;9.62;61.42
64889;BME280;51386;53.082;8.816;2023-02-14T07:51:34;103473.41;;;9.73;61.08
64889;BME280;51386;53.082;8.816;2023-02-14T07:54:01;103463.38;;;9.92;61.08
64889;BME280;51386;53.082;8.816;2023-02-14T07:56:28;103462.47;;;10.18;60.49
64889;BME280;51386;53.082;8.816;2023-02-14T07:58:55;103466.16;;;10.28;59.30
64889;BME280;51386;53.082;8.816;2023-02-14T08:01:22;103460.69;;;10.44;58.30
64889;BME280;51386;53.082;8.816;2023-02-14T08:03:49;103459.63;;;10.46;57.82
64889;BME280;51386;53.082;8.816;2023-02-14T08:06:18;103471.22;;;10.31;57.54
64889;BME280;51386;53.082;8.816;2023-02-14T08:08:47;103466.50;;;10.24;57.86
64889;BME280;51386;53.082;8.816;2023-02-14T08:11:14;103459.63;;;10.21;58.76
64889;BME280;51386;53.082;8.816;2023-02-14T08:14:02;103463.53;;;10.28;58.84
64889;BME280;51386;53.082;8.816;2023-02-14T08:16:29;103467.88;;;10.29;58.13
64889;BME280;51386;53.082;8.816;2023-02-14T08:18:58;103457.31;;;10.42;58.00
64889;BME280;51386;53.082;8.816;2023-02-14T08:21:28;103460.75;;;10.67;57.66
64889;BME280;51386;53.082;8.816;2023-02-14T08:23:56;103462.72;;;10.89;57.63
64889;BME280;51386;53.082;8.816;2023-02-14T08:26:24;103462.84;;;11.24;56.11
64889;BME280;51386;53.082;8.816;2023-02-14T08:28:51;103471.34;;;11.51;55.48
64889;BME280;51386;53.082;8.816;2023-02-14T08:31:23;103475.06;;;11.72;55.32
64889;BME280;51386;53.082;8.816;2023-02-14T08:34:00;103482.56;;;11.89;54.60
64889;BME280;51386;53.082;8.816;2023-02-14T08:36:28;103479.97;;;12.00;55.45
64889;BME280;51386;53.082;8.816;2023-02-14T08:38:56;103466.78;;;12.00;54.07
64889;BME280;51386;53.082;8.816;2023-02-14T08:41:24;103471.69;;;12.05;53.72
64889;BME280;51386;53.082;8.816;2023-02-14T08:43:51;103470.63;;;12.07;53.63
64889;BME280;51386;53.082;8.816;2023-02-14T08:46:18;103472.06;;;12.11;53.49
64889;BME280;51386;53.082;8.816;2023-02-14T08:48:45;103469.09;;;12.27;53.64
64889;BME280;51386;53.082;8.816;2023-02-14T08:51:13;103478.97;;;12.47;53.52
64889;BME280;51386;53.082;8.816;2023-02-14T08:53:42;103461.44;;;12.57;52.63
64889;BME280;51386;53.082;8.816;2023-02-14T08:56:12;103472.84;;;12.69;52.59
64889;BME280;51386;53.082;8.816;2023-02-14T08:58:40;103468.97;;;12.84;51.90
64889;BME280;51386;53.082;8.816;2023-02-14T09:01:08;103468.97;;;12.84;51.68
64889;BME280;51386;53.082;8.816;2023-02-14T09:03:37;103471.72;;;12.93;51.26
64889;BME280;51386;53.082;8.816;2023-02-14T09:06:06;103472.53;;;13.05;51.17
64889;BME280;51386;53.082;8.816;2023-02-14T09:08:35;103470.97;;;13.25;50.86
64889;BME280;51386;53.082;8.816;2023-02-14T09:11:06;103464.78;;;13.46;50.33
64889;BME280;51386;53.082;8.816;2023-02-14T09:13:35;103470.94;;;13.68;49.59
64889;BME280;51386;53.082;8.816;2023-02-14T09:16:03;103470.31;;;14.16;49.62
64889;BME280;51386;53.082;8.816;2023-02-14T09:18:30;103465.91;;;14.87;48.52
64889;BME280;51386;53.082;8.816;2023-02-14T09:20:57;103462.69;;;15.71;47.54
64889;BME280;51386;53.082;8.816;2023-02-14T09:23:25;103465.81;;;16.50;45.71
64889;BME280;51386;53.082;8.816;2023-02-14T09:25:59;103463.78;;;17.25;44.55
64889;BME280;51386;53.082;8.816;2023-02-14T09:28:27;103451.88;;;17.90;43.75
64889;BME280;51386;53.082;8.816;2023-02-14T09:30:56;103453.44;;;18.52;42.02
64889;BME280;51386;53.082;8.816;2023-02-14T09:33:26;103452.28;;;19.05;40.22
64889;BME280;51386;53.082;8.816;2023-02-14T09:35:56;103458.91;;;19.50;39.20
64889;BME280;51386;53.082;8.816;2023-02-14T09:38:45;103449.38;;;19.96;38.00
64889;BME280;51386;53.082;8.816;2023-02-14T09:42:01;103448.66;;;20.27;36.91
64889;BME280;51386;53.082;8.816;2023-02-14T09:44:36;103446.47;;;20.69;36.17
64889;BME280;51386;53.082;8.816;2023-02-14T09:47:18;103443.25;;;21.12;34.89
64889;BME280;51386;53.082;8.816;2023-02-14T09:49:47;103439.81;;;21.64;35.55
64889;BME280;51386;53.082;8.816;2023-02-14T09:52:20;103438.38;;;21.98;33.55
64889;BME280;51386;53.082;8.816;2023-02-14T09:54:55;103431.13;;;21.99;33.84
64889;BME280;51386;53.082;8.816;2023-02-14T09:57:37;103435.84;;;21.97;33.05
64889;BME280;51386;53.082;8.816;2023-02-14T10:00:22;103437.59;;;21.90;32.96
64889;BME280;51386;53.082;8.816;2023-02-14T10:06:08;103446.63;;;21.74;33.17
64889;BME280;51386;53.082;8.816;2023-02-14T10:08:54;103439.69;;;21.80;33.48
64889;BME280;51386;53.082;8.816;2023-02-14T10:11:27;103438.25;;;21.92;33.03
64889;BME280;51386;53.082;8.816;2023-02-14T10:14:00;103432.44;;;22.03;33.08
64889;BME280;51386;53.082;8.816;2023-02-14T10:16:36;103442.59;;;21.93;32.81
64889;BME280;51386;53.082;8.816;2023-02-14T10:19:16;103440.94;;;21.92;33.73
64889;BME280;51386;53.082;8.816;2023-02-14T10:21:52;103439.56;;;21.96;33.34
64889;BME280;51386;53.082;8.816;2023-02-14T10:24:26;103440.22;;;21.98;33.30
64889;BME280;51386;53.082;8.816;2023-02-14T10:27:02;103433.81;;;21.99;32.54
64889;BME280;51386;53.082;8.816;2023-02-14T10:29:44;103429.38;;;22.20;32.83
64889;BME280;51386;53.082;8.816;2023-02-14T10:32:18;103432.06;;;22.64;33.00
64889;BME280;51386;53.082;8.816;2023-02-14T10:34:55;103434.19;;;23.05;32.16
64889;BME280;51386;53.082;8.816;2023-02-14T10:37:45;103431.00;;;23.37;31.50
64889;BME280;51386;53.082;8.816;2023-02-14T10:40:36;103429.38;;;23.64;30.71
64889;BME280;51386;53.082;8.816;2023-02-14T10:43:16;103431.22;;;23.63;30.25
64889;BME280;51386;53.082;8.816;2023-02-14T10:45:58;103427.63;;;23.49;29.94
64889;BME280;51386;53.082;8.816;2023-02-14T10:48:44;103424.47;;;23.25;30.99
64889;BME280;51386;53.082;8.816;2023-02-14T10:51:19;103423.66;;;23.24;31.10
64889;BME280;51386;53.082;8.816;2023-02-14T10:53:59;103420.13;;;23.45;30.94
64889;BME280;51386;53.082;8.816;2023-02-14T10:56:34;103415.34;;;23.68;30.34
64889;BME280;51386;53.082;8.816;2023-02-14T10:59:19;103421.13;;;23.65;30.99
64889;BME280;51386;53.082;8.816;2023-02-14T11:01:50;103420.19;;;23.51;30.60
64889;BME280;51386;53.082;8.816;2023-02-14T11:04:21;103418.31;;;23.31;30.73
64889;BME280;51386;53.082;8.816;2023-02-14T11:06:50;103420.50;;;23.00;31.58
64889;BME280;51386;53.082;8.816;2023-02-14T11:09:19;103403.41;;;22.86;31.73
64889;BME280;51386;53.082;8.816;2023-02-14T11:11:50;103401.28;;;22.81;31.80
64889;BME280;51386;53.082;8.816;2023-02-14T11:14:23;103397.38;;;22.63;32.28
64889;BME280;51386;53.082;8.816;2023-02-14T11:16:51;103401.91;;;22.62;32.03
64889;BME280;51386;53.082;8.816;2023-02-14T11:19:24;103400.88;;;22.84;32.31
64889;BME280;51386;53.082;8.816;2023-02-14T11:21:56;103393.63;;;23.00;31.79
64889;BME280;51386;53.082;8.816;2023-02-14T11:24:29;103398.34;;;23.19;31.72
64889;BME280;51386;53.082;8.816;2023-02-14T11:27:00;103394.41;;;23.36;31.67
64889;BME280;51386;53.082;8.816;2023-02-14T11:29:34;103383.75;;;23.49;31.08
64889;BME280;51386;53.082;8.816;2023-02-14T11:32:08;103379.91;;;23.58;31.00
64889;BME280;51386;53.082;8.816;2023-02-14T11:34:38;103378.97;;;23.72;30.92
64889;BME280;51386;53.082;8.816;2023-02-14T11:37:27;103375.16;;;23.94;30.97
64889;BME280;51386;53.082;8.816;2023-02-14T11:39:57;103373.75;;;23.98;30.50
64889;BME280;51386;53.082;8.816;2023-02-14T11:42:41;103368.03;;;23.80;30.18
64889;BME280;51386;53.082;8.816;2023-02-14T11:45:27;103363.66;;;23.45;30.94
64889;BME280;51386;53.082;8.816;2023-02-14T11:48:14;103358.66;;;23.21;31.03
64889;BME280;51386;53.082;8.816;2023-02-14T11:50:54;103357.41;;;23.17;31.66
64889;BME280;51386;53.082;8.816;2023-02-14T11:53:27;103349.50;;;23.58;31.28
64889;BME280;51386;53.082;8.816;2023-02-14T11:55:57;103350.31;;;24.27;30.73
64889;BME280;51386;53.082;8.816;2023-02-14T11:58:32;103353.41;;;24.84;29.53
64889;BME280;51386;53.082;8.816;2023-02-14T12:01:01;103343.06;;;25.20;28.74
64889;BME280;51386;53.082;8.816;2023-02-14T12:03:37;103339.13;;;25.49;28.99
64889;BME280;51386;53.082;8.816;2023-02-14T12:06:05;103341.81;;;25.55;29.13
64889;BME280;51386;53.082;8.816;2023-02-14T12:08:34;103336.41;;;25.55;28.36
64889;BME280;51386;53.082;8.816;2023-02-14T12:11:19;103331.22;;;25.34;28.89
64889;BME280;51386;53.082;8.816;2023-02-14T12:13:55;103334.34;;;25.05;29.03
64889;BME280;51386;53.082;8.816;2023-02-14T12:16:31;103328.94;;;24.79;29.37
64889;BME280;51386;53.082;8.816;2023-02-14T12:19:02;103332.59;;;24.58;29.53
64889;BME280;51386;53.082;8.816;2023-02-14T12:21:45;103328.34;;;24.30;29.91
64889;BME280;51386;53.082;8.816;2023-02-14T12:24:29;103321.56;;;23.93;30.18
64889;BME280;51386;53.082;8.816;2023-02-14T12:27:17;103316.00;;;23.60;30.99
64889;BME280;51386;53.082;8.816;2023-02-14T12:29:51;103316.97;;;23.25;31.19
64889;BME280;51386;53.082;8.816;2023-02-14T12:32:24;103316.97;;;23.04;31.62
64889;BME280;51386;53.082;8.816;2023-02-14T12:34:57;103310.84;;;22.88;31.93
64889;BME280;51386;53.082;8.816;2023-02-14T12:37:38;103307.44;;;22.80;32.07
64889;BME280;51386;53.082;8.816;2023-02-14T12:40:18;103301.25;;;22.79;32.44
64889;BME280;51386;53.082;8.816;2023-02-14T12:43:13;103308.44;;;22.72;32.47
64889;BME280;51386;53.082;8.816;2023-02-14T12:46:14;103303.47;;;22.97;32.38
64889;BME280;51386;53.082;8.816;2023-02-14T12:49:06;103291.44;;;23.14;32.08
64889;BME280;51386;53.082;8.816;2023-02-14T12:51:46;103292.31;;;22.94;32.02
64889;BME280;51386;53.082;8.816;2023-02-14T12:54:39;103284.75;;;22.61;32.27
64889;BME280;51386;53.082;8.816;2023-02-14T12:57:27;103286.22;;;22.64;32.31
64889;BME280;51386;53.082;8.816;2023-02-14T13:00:12;103280.47;;;22.88;32.34
64889;BME280;51386;53.082;8.816;2023-02-14T13:05:57;103273.38;;;23.64;31.29
64889;BME280;51386;53.082;8.816;2023-02-14T13:08:45;103270.94;;;24.09;30.77
64889;BME280;51386;53.082;8.816;2023-02-14T13:11:29;103263.41;;;24.72;29.20
64889;BME280;51386;53.082;8.816;2023-02-14T13:14:13;103252.19;;;25.40;28.85
64889;BME280;51386;53.082;8.816;2023-02-14T13:16:50;103255.72;;;25.98;28.44
64889;BME280;51386;53.082;8.816;2023-02-14T13:19:33;103249.41;;;26.24;27.91
64889;BME280;51386;53.082;8.816;2023-02-14T13:22:10;103242.09;;;26.31;27.05
64889;BME280;51386;53.082;8.816;2023-02-14T13:24:42;103236.88;;;25.85;27.13
64889;BME280;51386;53.082;8.816;2023-02-14T13:27:17;103237.50;;;25.04;28.32
64889;BME280;51386;53.082;8.816;2023-02-14T13:29:52;103231.84;;;24.27;28.17
64889;BME280;51386;53.082;8.816;2023-02-14T13:32:24;103225.50;;;23.46;29.32